Time;durP1;ratioP1;P1;durP2;ratioP2;P2;SDS_P1;SDS_P2;PMS_P1;PMS_P2;Temp;Humidity;BMP_temperature;BMP_pressure;BME280_temperature;BME280_humidity;BME280_pressure;Samples;Min_cycle;Max_cycle;Signal;HPM_P1;HPM_P2
2022/04/29 02:24:08;;;;;;;17.25;8.93;;;;;;;6.37;73.08;101746.72;1663551;85;25867;-76
2022/04/29 02:26:34;;;;;;;12.23;8.68;;;;;;;6.22;72.88;101746.22;1671987;85;27714;-76
2022/04/29 02:29:00;;;;;;;13.20;8.53;;;;;;;6.14;73.10;101754.84;1667851;85;26003;-75
2022/04/29 02:31:27;;;;;;;13.35;8.48;;;;;;;6.10;73.42;101747.24;1650898;85;26365;-76
2022/04/29 02:33:54;;;;;;;12.23;8.90;;;;;;;6.07;73.29;101743.02;1680254;84;25729;-76
2022/04/29 02:36:23;;;;;;;16.62;8.98;;;;;;;6.05;72.98;101748.96;1680533;85;25737;-76
2022/04/29 02:38:49;;;;;;;12.53;9.75;;;;;;;6.03;73.14;101744.26;1678629;85;28050;-76
2022/04/29 02:41:17;;;;;;;16.37;10.60;;;;;;;6.02;73.39;101737.75;1680821;85;25763;-75
2022/04/29 02:43:44;;;;;;;20.60;11.90;;;;;;;6.05;73.58;101732.18;1680163;84;25830;-76
2022/04/29 02:46:10;;;;;;;22.90;12.50;;;;;;;6.07;73.67;101732.89;1672674;84;26593;-76
2022/04/29 02:48:37;;;;;;;19.45;13.08;;;;;;;6.06;73.68;101731.19;1646475;85;25832;-75
2022/04/29 02:51:04;;;;;;;18.07;11.28;;;;;;;6.08;73.82;101730.09;1673369;84;27654;-76
2022/04/29 02:53:33;;;;;;;14.68;10.90;;;;;;;6.10;73.85;101728.63;1669901;84;26135;-76
2022/04/29 02:56:00;;;;;;;14.45;10.15;;;;;;;6.09;73.89;101733.09;1648042;85;25792;-76
2022/04/29 02:58:28;;;;;;;16.48;9.98;;;;;;;6.06;73.73;101726.72;1669301;84;26553;-76
2022/04/29 03:00:56;;;;;;;17.35;10.28;;;;;;;6.02;73.66;101727.96;1674717;84;25948;-76
2022/04/29 03:03:22;;;;;;;19.40;11.45;;;;;;;5.96;73.73;101721.84;1673455;84;27464;-76
2022/04/29 03:05:50;;;;;;;21.55;11.95;;;;;;;5.90;73.74;101722.33;1670561;85;26142;-76
2022/04/29 03:08:16;;;;;;;21.37;13.25;;;;;;;5.86;73.93;101725.41;1676346;84;25874;-76
2022/04/29 03:10:43;;;;;;;24.05;13.60;;;;;;;5.84;74.18;101725.98;1673708;84;26459;-76
2022/04/29 03:13:09;;;;;;;20.48;12.88;;;;;;;5.78;74.14;101723.34;1671781;85;26008;-76
2022/04/29 03:15:37;;;;;;;25.00;13.28;;;;;;;5.78;74.51;101723.34;1674708;84;27485;-75
2022/04/29 03:18:20;;;;;;;20.57;13.25;;;;;;;5.77;74.55;101720.81;1674435;85;26473;-76
2022/04/29 03:20:51;;;;;;;24.92;12.90;;;;;;;5.78;74.65;101711.85;1679562;84;26153;-76
2022/04/29 03:23:19;;;;;;;23.18;13.40;;;;;;;5.78;74.59;101717.17;1680123;85;25935;-76
2022/04/29 03:25:56;;;;;;;20.43;13.53;;;;;;;5.77;74.71;101723.00;1660085;85;25809;-75
2022/04/29 03:28:24;;;;;;;20.57;13.15;;;;;;;5.75;74.63;101718.78;1669056;84;27561;-75
2022/04/29 03:30:51;;;;;;;25.55;13.85;;;;;;;5.73;74.59;101722.87;1679758;84;26147;-75
2022/04/29 03:33:20;;;;;;;21.33;13.10;;;;;;;5.73;74.62;101728.69;1649764;86;25763;-75
2022/04/29 03:35:49;;;;;;;22.67;13.18;;;;;;;5.70;74.58;101728.46;1680413;84;25832;-76
2022/04/29 03:38:17;;;;;;;20.48;12.85;;;;;;;5.71;74.64;101727.47;1649117;86;26119;-76
2022/04/29 03:40:44;;;;;;;21.73;13.10;;;;;;;5.68;74.50;101720.25;1650347;86;27467;-76
2022/04/29 03:43:15;;;;;;;21.70;13.83;;;;;;;5.66;74.46;101723.52;1650086;86;25830;-75
2022/04/29 03:45:43;;;;;;;20.90;12.63;;;;;;;5.62;74.35;101723.42;1649910;86;25851;-75
2022/04/29 03:48:12;;;;;;;20.37;13.62;;;;;;;5.60;74.55;101719.58;1650123;86;26572;-75
2022/04/29 03:50:57;;;;;;;28.30;13.35;;;;;;;5.59;74.58;101719.68;1649337;86;26300;-75
2022/04/29 03:53:24;;;;;;;24.60;13.70;;;;;;;5.62;74.61;101720.77;1637058;86;27471;-76
2022/04/29 03:55:54;;;;;;;23.50;13.68;;;;;;;5.65;74.64;101721.82;1672065;84;25782;-76
2022/04/29 03:58:21;;;;;;;25.60;14.53;;;;;;;5.67;74.63;101722.53;1671710;84;25817;-76
2022/04/29 04:00:49;;;;;;;23.40;14.93;;;;;;;5.66;74.73;101731.02;1675219;84;25826;-75
2022/04/29 04:03:18;;;;;;;23.77;14.75;;;;;;;5.68;74.98;101726.41;1667071;85;26530;-75
2022/04/29 04:06:49;;;;;;;25.72;14.83;;;;;;;5.70;75.05;101730.27;1672213;84;27702;-75
2022/04/29 04:08:13;;;;;;;21.20;14.58;;;;;;;5.72;75.20;101730.98;1662385;84;25924;-76
2022/04/29 04:10:41;;;;;;;24.82;14.13;;;;;;;5.70;74.90;101727.12;1677617;85;25852;-75
2022/04/29 04:13:13;;;;;;;25.92;14.75;;;;;;;5.68;75.08;101733.54;1672151;84;25938;-76
2022/04/29 04:15:40;;;;;;;23.30;15.05;;;;;;;5.68;75.35;101742.36;1674410;84;26129;-76
2022/04/29 04:18:07;;;;;;;25.12;16.45;;;;;;;5.67;75.65;101742.47;1674425;84;27653;-76
2022/04/29 04:20:34;;;;;;;25.95;15.98;;;;;;;5.65;75.91;101732.45;1673915;84;25762;-76
2022/04/29 04:23:02;;;;;;;28.40;15.30;;;;;;;5.65;75.68;101739.95;1669112;84;25756;-76
2022/04/29 04:25:29;;;;;;;25.85;15.78;;;;;;;5.66;75.59;101731.50;1623602;88;26478;-76
2022/04/29 04:27:56;;;;;;;29.40;16.85;;;;;;;5.67;75.88;101736.67;1675363;84;25870;-76
2022/04/29 04:30:24;;;;;;;28.02;17.12;;;;;;;5.72;76.20;101742.47;1673085;84;27682;-75
2022/04/29 04:32:50;;;;;;;26.68;17.27;;;;;;;5.76;76.58;101738.58;1672716;84;25910;-76
2022/04/29 04:35:17;;;;;;;29.02;17.55;;;;;;;5.79;76.59;101747.64;1618299;88;25913;-75
2022/04/29 04:37:44;;;;;;;27.85;17.35;;;;;;;5.85;76.76;101747.16;1651805;85;25963;-75
2022/04/29 04:40:12;;;;;;;29.55;17.67;;;;;;;5.91;76.93;101750.62;1681159;84;25891;-76
2022/04/29 04:42:45;;;;;;;29.90;17.87;;;;;;;5.98;77.15;101747.81;1679956;85;28339;-75
2022/04/29 04:45:12;;;;;;;26.30;17.67;;;;;;;6.07;77.30;101750.18;1653447;86;26063;-75
2022/04/29 04:47:41;;;;;;;26.02;17.98;;;;;;;6.13;77.39;101749.17;1651512;86;25883;-76
2022/04/29 04:50:15;;;;;;;32.45;19.90;;;;;;;6.23;77.63;101750.55;1649682;86;25832;-76
2022/04/29 04:52:45;;;;;;;25.48;17.25;;;;;;;6.33;78.00;101748.78;1653110;86;25945;-77
2022/04/29 04:55:12;;;;;;;25.00;17.45;;;;;;;6.36;78.43;101754.33;1653424;86;27489;-75
2022/04/29 04:57:40;;;;;;;28.15;19.80;;;;;;;6.35;78.73;101755.33;1653124;86;25892;-76
2022/04/29 05:00:07;;;;;;;26.17;18.00;;;;;;;6.42;78.68;101755.98;1624788;86;26414;-77
2022/04/29 05:02:44;;;;;;;28.55;19.45;;;;;;;6.52;79.13;101759.53;1648798;86;25785;-76
2022/04/29 05:05:24;;;;;;;27.75;19.00;;;;;;;6.59;79.30;101751.86;1630069;86;25820;-77
2022/04/29 05:08:01;;;;;;;33.33;19.20;;;;;;;6.68;79.29;101755.91;1652352;86;28313;-76
2022/04/29 05:10:29;;;;;;;37.70;22.35;;;;;;;6.80;80.23;101751.34;1653022;86;25818;-76
2022/04/29 05:12:56;;;;;;;35.13;20.50;;;;;;;6.90;80.32;101750.88;1653081;86;25820;-76
2022/04/29 05:15:28;;;;;;;34.33;20.82;;;;;;;7.00;80.57;101753.92;1652408;86;25817;-76
2022/04/29 05:17:54;;;;;;;36.83;22.50;;;;;;;7.13;80.98;101756.83;1653329;86;25760;-76
2022/04/29 05:20:28;;;;;;;42.38;24.45;;;;;;;7.24;80.88;101750.91;1652036;86;28577;-76
2022/04/29 05:22:54;;;;;;;47.67;28.80;;;;;;;7.38;80.95;101752.31;1653146;86;26005;-75
2022/04/29 05:25:21;;;;;;;44.30;27.75;;;;;;;7.51;80.82;101753.74;1653158;86;25704;-76
2022/04/29 05:28:07;;;;;;;44.98;27.65;;;;;;;7.66;80.68;101752.83;1653565;86;26164;-75
2022/04/29 05:30:52;;;;;;;41.50;27.10;;;;;;;7.82;80.46;101758.47;1653110;86;25856;-75
2022/04/29 05:33:38;;;;;;;38.08;24.80;;;;;;;7.95;80.08;101755.02;1653294;86;27411;-75
2022/04/29 05:36:17;;;;;;;39.83;26.57;;;;;;;8.07;79.66;101755.70;1653444;86;25946;-76
2022/04/29 05:44:34;;;;;;;41.42;25.82;;;;;;;8.47;79.51;101747.00;1656758;85;26500;-76
2022/04/29 05:47:01;;;;;;;43.60;25.48;;;;;;;8.62;79.34;101749.55;1621794;86;27537;-76
2022/04/29 05:49:27;;;;;;;40.45;25.35;;;;;;;8.76;79.14;101750.42;1650159;86;26143;-76
2022/04/29 05:51:53;;;;;;;43.58;25.00;;;;;;;8.87;78.93;101751.58;1650169;86;25335;-76
2022/04/29 05:54:21;;;;;;;37.80;25.70;;;;;;;8.99;78.94;101754.39;1650054;86;26610;-76
2022/04/29 05:56:48;;;;;;;37.53;24.25;;;;;;;9.13;78.66;101752.54;1649888;86;25933;-75
2022/04/29 05:59:14;;;;;;;37.13;25.43;;;;;;;9.25;78.47;101752.70;1650069;86;28306;-75
2022/04/29 06:02:01;;;;;;;38.53;24.07;;;;;;;9.40;78.18;101753.52;1649534;85;25910;-76
2022/04/29 06:04:35;;;;;;;39.92;24.75;;;;;;;9.52;77.52;101759.83;1649246;86;26687;-75
2022/04/29 06:07:01;;;;;;;43.48;25.50;;;;;;;9.65;76.90;101760.78;1621813;86;25886;-77
2022/04/29 06:09:28;;;;;;;31.90;21.87;;;;;;;9.77;77.04;101760.40;1621653;86;26142;-76
2022/04/29 06:11:54;;;;;;;32.67;23.52;;;;;;;9.92;76.86;101760.20;1649822;86;27718;-77
2022/04/29 06:14:22;;;;;;;31.50;22.40;;;;;;;10.05;76.64;101763.33;1648939;86;25990;-76
2022/04/29 06:16:57;;;;;;;38.75;23.77;;;;;;;10.20;76.89;101762.82;1646156;86;25890;-76
2022/04/29 06:19:28;;;;;;;31.12;22.22;;;;;;;10.36;76.44;101765.59;1643052;86;25835;-75
2022/04/29 06:21:56;;;;;;;29.57;20.32;;;;;;;10.48;75.74;101755.80;1643747;86;25778;-76
2022/04/29 06:24:23;;;;;;;31.85;21.77;;;;;;;10.61;74.65;101756.70;1650442;86;27419;-76
2022/04/29 06:26:49;;;;;;;35.48;20.62;;;;;;;10.72;74.58;101763.14;1649956;86;25807;-76
2022/04/29 06:29:15;;;;;;;31.87;23.00;;;;;;;10.84;74.18;101760.02;1650207;86;25755;-75
2022/04/29 06:31:42;;;;;;;32.40;23.15;;;;;;;10.94;73.22;101757.23;1649775;86;25843;-77
2022/04/29 06:34:18;;;;;;;34.45;23.85;;;;;;;11.05;72.50;101759.63;1645858;86;25826;-75
2022/04/29 06:36:46;;;;;;;32.45;23.15;;;;;;;11.16;72.81;101759.31;1649762;85;28603;-76
2022/04/29 06:39:13;;;;;;;35.38;23.50;;;;;;;11.26;72.43;101759.19;1667105;85;25763;-76
2022/04/29 06:41:58;;;;;;;35.15;22.20;;;;;;;11.36;71.89;101756.70;1680352;85;25524;-77
2022/04/29 06:44:42;;;;;;;29.95;21.57;;;;;;;11.48;71.61;101759.94;1671562;85;26564;-76
2022/04/29 06:47:13;;;;;;;;;;;;;;;11.58;71.16;101758.78;1636835;85;25884;-75
2022/04/29 06:49:44;;;;;;;39.08;21.52;;;;;;;11.70;70.71;101758.50;1633583;86;28415;-76
2022/04/29 06:52:29;;;;;;;33.13;22.58;;;;;;;11.79;70.37;101762.84;1635868;85;26064;-76
2022/04/29 06:54:57;;;;;;;36.48;24.75;;;;;;;11.90;70.41;101758.50;1635381;85;26243;-76
2022/04/29 06:57:25;;;;;;;32.42;22.55;;;;;;;12.01;70.02;101762.20;1617649;88;25800;-76
2022/04/29 06:59:52;;;;;;;30.00;21.80;;;;;;;12.12;70.09;101763.21;1680149;85;25968;-76
2022/04/29 07:02:18;;;;;;;31.48;22.27;;;;;;;12.23;69.67;101761.00;1655761;85;27459;-75
2022/04/29 07:04:45;;;;;;;29.98;21.45;;;;;;;12.35;70.00;101762.35;1678530;85;25758;-76
2022/04/29 07:07:11;;;;;;;30.48;20.95;;;;;;;12.48;68.92;101762.33;1680114;85;25477;-76
2022/04/29 07:09:43;;;;;;;33.67;20.00;;;;;;;12.56;68.78;101759.61;1680184;85;25882;-75
2022/04/29 07:12:23;;;;;;;27.30;18.07;;;;;;;12.68;67.56;101757.73;1660939;84;26086;-76
2022/04/29 07:14:53;;;;;;;28.80;18.12;;;;;;;12.79;67.42;101759.20;1682022;84;27476;-76
2022/04/29 07:17:21;;;;;;;25.85;18.23;;;;;;;12.88;66.83;101758.17;1679964;85;26551;-76
2022/04/29 07:19:50;;;;;;;26.40;17.23;;;;;;;12.97;66.39;101759.83;1680558;84;25778;-76
2022/04/29 07:22:17;;;;;;;28.35;18.52;;;;;;;13.06;66.09;101757.48;1680548;85;25866;-76
2022/04/29 07:24:45;;;;;;;23.40;16.82;;;;;;;13.14;66.04;101751.55;1669920;85;25763;-76
2022/04/29 07:27:15;;;;;;;24.10;16.75;;;;;;;13.26;65.83;101753.86;1680647;85;28284;-75
2022/04/29 07:29:42;;;;;;;27.03;18.63;;;;;;;13.34;65.38;101750.62;1669900;85;25955;-76
2022/04/29 07:32:28;;;;;;;27.70;18.48;;;;;;;13.45;64.73;101752.88;1638255;85;26079;-76
2022/04/29 07:43:36;;;;;;;24.12;17.48;;;;;;;13.83;64.74;101757.86;1675860;85;25879;-76
2022/04/29 07:46:05;;;;;;;22.67;16.02;;;;;;;13.89;62.99;101751.25;1676140;85;25892;-76
2022/04/29 07:48:36;;;;;;;21.97;17.37;;;;;;;13.91;62.26;101751.91;1675654;85;26393;-75
2022/04/29 07:51:03;;;;;;;26.73;17.73;;;;;;;13.94;62.10;101750.72;1670951;85;25972;-76
2022/04/29 07:53:31;;;;;;;26.97;14.78;;;;;;;13.99;61.05;101745.60;1678060;84;28197;-76
2022/04/29 07:55:58;;;;;;;21.87;14.83;;;;;;;14.05;61.19;101751.61;1664235;85;25850;-76
2022/04/29 07:58:24;;;;;;;25.92;17.23;;;;;;;14.12;61.19;101753.91;1680573;84;25807;-75
2022/04/29 08:00:51;;;;;;;24.87;16.77;;;;;;;14.18;61.21;101751.02;1678190;85;26456;-77
2022/04/29 08:03:17;;;;;;;22.93;15.95;;;;;;;14.24;59.96;101751.63;1668933;84;25881;-76
2022/04/29 08:05:58;;;;;;;22.77;17.17;;;;;;;14.29;60.42;101746.55;1670780;85;28139;-75
2022/04/29 08:08:25;;;;;;;22.10;15.60;;;;;;;14.36;60.74;101742.11;1680398;84;25789;-76
2022/04/29 08:10:51;;;;;;;19.35;13.30;;;;;;;14.42;58.79;101749.45;1680096;85;25847;-77
2022/04/29 08:13:18;;;;;;;18.00;11.68;;;;;;;14.49;57.92;101752.59;1680471;85;26573;-76
2022/04/29 08:15:50;;;;;;;14.25;11.30;;;;;;;14.55;57.58;101751.85;1680203;85;26318;-76
2022/04/29 08:18:31;;;;;;;15.88;12.45;;;;;;;14.63;56.97;101749.56;1617283;85;27487;-75
2022/04/29 08:20:57;;;;;;;20.05;13.43;;;;;;;14.66;55.41;101748.70;1680612;85;25925;-76
2022/04/29 08:23:24;;;;;;;19.45;13.80;;;;;;;14.68;56.24;101744.46;1680165;85;25949;-76
2022/04/29 08:25:50;;;;;;;16.95;12.30;;;;;;;14.70;55.29;101742.41;1675558;85;25862;-77
2022/04/29 08:28:16;;;;;;;15.30;12.80;;;;;;;14.76;56.20;101733.57;1658087;84;26115;-76
2022/04/29 08:30:42;;;;;;;19.48;13.45;;;;;;;14.90;54.09;101737.30;1646852;85;27659;-76
2022/04/29 08:33:14;;;;;;;15.53;12.28;;;;;;;14.93;55.50;101730.16;1680355;85;25825;-76
2022/04/29 08:35:42;;;;;;;11.53;8.78;;;;;;;15.00;55.94;101737.33;1676711;85;25828;-76
2022/04/29 08:38:10;;;;;;;11.65;8.08;;;;;;;15.12;54.73;101737.70;1672778;85;26613;-76
2022/04/29 08:40:44;;;;;;;10.88;7.97;;;;;;;15.22;54.37;101733.68;1678723;85;25867;-76
2022/04/29 08:43:12;;;;;;;14.00;10.43;;;;;;;15.31;54.79;101736.56;1680167;85;27549;-76
2022/04/29 08:45:39;;;;;;;12.50;9.23;;;;;;;15.31;52.91;101735.22;1643256;84;25855;-76
2022/04/29 08:48:24;;;;;;;11.55;9.10;;;;;;;15.35;52.03;101737.05;1679983;85;25793;-76
2022/04/29 08:50:50;;;;;;;10.35;8.98;;;;;;;15.35;50.92;101731.64;1680806;84;25783;-76
2022/04/29 08:53:17;;;;;;;15.05;8.38;;;;;;;15.35;51.26;101733.00;1669121;85;25766;-76
2022/04/29 08:58:43;;;;;;;12.82;9.33;;;;;;;15.42;51.54;101735.23;1680233;85;25850;-76
2022/04/29 09:01:20;;;;;;;9.63;7.45;;;;;;;15.38;50.76;101735.30;1680027;85;25827;-76
2022/04/29 09:03:46;;;;;;;9.63;6.62;;;;;;;15.34;51.23;101729.95;1669234;85;26501;-77
2022/04/29 09:06:17;;;;;;;11.10;7.17;;;;;;;15.40;50.53;101733.23;1680470;85;25797;-77
2022/04/29 09:08:44;;;;;;;9.78;7.65;;;;;;;15.39;50.72;101736.48;1679949;84;27476;-76
2022/04/29 09:11:23;;;;;;;10.85;7.80;;;;;;;15.49;50.39;101734.83;1680652;84;25729;-76
2022/04/29 09:26:36;;;;;;;9.60;7.70;;;;;;;16.76;48.65;101717.95;1779057;78;25842;-76
2022/04/29 09:29:20;;;;;;;10.43;7.00;;;;;;;16.73;47.18;101718.84;1726483;81;26175;-76
2022/04/29 09:32:03;;;;;;;8.78;6.20;;;;;;;16.61;47.07;101725.34;1707107;81;27690;-76
2022/04/29 09:34:53;;;;;;;8.03;4.60;;;;;;;16.41;45.29;101718.93;1735715;81;26495;-75
2022/04/29 09:37:22;;;;;;;7.78;5.45;;;;;;;16.36;45.63;101720.02;1743591;81;26516;-76
2022/04/29 09:40:00;;;;;;;7.90;5.35;;;;;;;16.35;46.23;101716.17;1733609;80;25803;-76
2022/04/29 09:42:41;;;;;;;6.42;5.22;;;;;;;16.35;45.39;101707.55;1729176;81;26045;-78
2022/04/29 09:45:19;;;;;;;7.60;5.10;;;;;;;16.37;44.36;101713.59;1710255;80;27440;-75
2022/04/29 09:47:45;;;;;;;7.42;5.22;;;;;;;16.29;46.03;101708.35;1727762;81;25767;-75
2022/04/29 09:50:12;;;;;;;8.93;5.62;;;;;;;16.40;45.70;101706.42;1739906;81;25788;-76
2022/04/29 09:52:40;;;;;;;9.78;5.95;;;;;;;16.50;45.65;101698.84;1727453;81;26511;-76
2022/04/29 09:55:18;;;;;;;10.00;5.60;;;;;;;16.60;45.37;101703.38;1724264;81;26054;-77
2022/04/29 09:57:51;;;;;;;7.75;6.33;;;;;;;16.62;46.46;101705.36;1728369;81;27467;-76
2022/04/29 10:00:19;;;;;;;9.35;5.75;;;;;;;16.53;45.50;101706.55;1727992;81;25938;-77
2022/04/29 10:02:49;;;;;;;7.67;4.80;;;;;;;16.36;44.52;101701.64;1725232;81;25755;-77
2022/04/29 10:05:16;;;;;;;5.53;4.95;;;;;;;16.29;44.95;101705.64;1695813;82;26558;-77
2022/04/29 10:07:44;;;;;;;9.43;4.87;;;;;;;16.41;46.06;101701.35;1730170;81;25812;-76
2022/04/29 10:10:11;;;;;;;5.45;4.42;;;;;;;16.57;44.39;101698.89;1735028;81;28331;-76
2022/04/29 10:12:38;;;;;;;6.70;4.58;;;;;;;16.62;45.28;101700.46;1725415;81;25309;-76
2022/04/29 10:15:18;;;;;;;7.62;4.00;;;;;;;16.71;44.51;101696.56;1713807;80;25959;-75
2022/04/29 10:23:38;;;;;;;4.65;3.25;;;;;;;16.26;43.38;101698.42;1739423;81;27536;-76
2022/04/29 10:26:06;;;;;;;5.72;3.77;;;;;;;16.19;42.92;101692.45;1741118;80;25827;-76
2022/04/29 10:28:33;;;;;;;7.17;4.35;;;;;;;16.18;42.46;101692.16;1742684;81;26135;-76
2022/04/29 10:31:05;;;;;;;5.08;3.33;;;;;;;16.30;43.15;101696.99;1744020;81;25255;-76
2022/04/29 10:33:31;;;;;;;8.23;3.62;;;;;;;16.40;44.04;101690.74;1740292;81;25618;-76
2022/04/29 10:36:07;;;;;;;5.05;3.30;;;;;;;16.47;43.78;101687.54;1714287;80;27627;-75
2022/04/29 10:38:39;;;;;;;4.80;3.25;;;;;;;16.47;42.80;101684.33;1717935;81;25805;-76
2022/04/29 10:41:17;;;;;;;7.25;3.98;;;;;;;16.41;41.63;101681.58;1719044;81;25811;-76
2022/04/29 10:43:55;;;;;;;8.28;3.95;;;;;;;16.29;42.69;101685.37;1719530;81;25600;-76
2022/04/29 10:46:40;;;;;;;5.85;3.42;;;;;;;16.29;43.30;101684.52;1729110;81;25941;-76
2022/04/29 10:49:28;;;;;;;5.05;3.08;;;;;;;16.29;42.01;101685.88;1702617;83;27477;-77
2022/04/29 10:52:05;;;;;;;8.63;4.05;;;;;;;16.24;43.07;101681.06;1721522;80;25795;-76
2022/04/29 10:54:42;;;;;;;7.97;4.65;;;;;;;16.26;43.42;101681.70;1713036;81;25857;-76
2022/04/29 10:57:41;;;;;;;8.05;4.42;;;;;;;16.21;42.60;101689.04;1715615;81;25977;-76
2022/04/29 11:00:12;;;;;;;8.53;3.77;;;;;;;16.13;42.12;101682.44;1710592;81;25919;-76
2022/04/29 11:05:40;;;;;;;6.58;4.58;;;;;;;16.29;42.80;101675.91;1664844;84;25907;-76
2022/04/29 11:08:09;;;;;;;7.58;4.62;;;;;;;16.46;41.38;101666.95;1680729;83;26422;-76
2022/04/29 11:13:44;;;;;;;5.42;3.98;;;;;;;16.60;42.38;101674.13;1688012;83;25318;-76
2022/04/29 11:16:19;;;;;;;6.67;4.37;;;;;;;16.73;41.41;101671.49;1676245;84;26989;-78
2022/04/29 11:18:54;;;;;;;5.03;4.10;;;;;;;16.84;40.04;101669.57;1675354;83;25988;-78
2022/04/29 11:26:52;;;;;;;5.60;4.00;;;;;;;17.10;40.85;101670.19;1634028;86;26080;-75
2022/04/29 11:29:20;;;;;;;4.05;3.27;;;;;;;17.15;39.71;101668.53;1646855;86;26937;-75
2022/04/29 11:31:56;;;;;;;7.67;3.75;;;;;;;17.18;40.24;101670.00;1659418;84;26523;-75
2022/04/29 11:34:22;;;;;;;5.37;3.37;;;;;;;17.18;40.28;101668.14;1635591;86;25834;-76
2022/04/29 11:36:54;;;;;;;5.47;3.40;;;;;;;17.26;40.84;101665.23;1647299;85;25780;-76
2022/04/29 11:42:30;;;;;;;4.53;3.27;;;;;;;17.41;40.34;101659.12;1723739;81;25960;-75
2022/04/29 11:45:07;;;;;;;3.17;2.30;;;;;;;17.44;39.07;101657.88;1734556;81;25288;-76
2022/04/29 11:47:34;;;;;;;5.80;2.72;;;;;;;17.45;38.95;101650.90;1729415;81;25812;-75
2022/04/29 11:50:03;;;;;;;6.45;3.15;;;;;;;17.51;39.22;101646.58;1743158;81;25950;-76
2022/04/29 11:52:33;;;;;;;6.53;2.95;;;;;;;17.55;39.13;101645.96;1745209;81;25744;-76
2022/04/29 11:55:13;;;;;;;4.43;3.30;;;;;;;17.65;39.49;101643.67;1742107;81;27636;-76
2022/04/29 11:57:47;;;;;;;5.12;2.90;;;;;;;17.70;39.26;101647.95;1689424;83;25780;-78
2022/04/29 12:00:27;;;;;;;3.90;2.35;;;;;;;17.73;38.12;101643.97;1697991;84;26492;-75
2022/04/29 12:02:55;;;;;;;2.90;2.10;;;;;;;17.79;36.50;101642.32;1714917;82;25770;-76
2022/04/29 12:05:28;;;;;;;7.85;2.65;;;;;;;17.76;36.35;101651.70;1690680;84;25789;-76
2022/04/29 12:08:01;;;;;;;5.83;2.83;;;;;;;17.73;36.92;101643.45;1757126;81;27621;-76
2022/04/29 12:10:35;;;;;;;3.52;2.10;;;;;;;17.76;36.70;101646.80;1721270;81;33951;-77
2022/04/29 12:13:04;;;;;;;4.20;2.47;;;;;;;17.77;35.92;101637.63;1729303;81;25241;-76
2022/04/29 12:15:36;;;;;;;6.67;2.47;;;;;;;17.76;36.43;101631.38;1753878;81;25801;-76
2022/04/29 12:18:07;;;;;;;4.72;3.30;;;;;;;17.87;36.54;101630.75;1736362;81;25759;-76
2022/04/29 12:20:34;;;;;;;7.00;3.33;;;;;;;17.96;37.74;101636.28;1735609;81;27482;-76
2022/04/29 12:23:19;;;;;;;4.78;2.77;;;;;;;18.04;35.77;101627.08;1739189;81;25839;-76
2022/04/29 12:25:48;;;;;;;9.63;4.30;;;;;;;18.08;35.82;101630.52;1735994;81;25743;-77
2022/04/29 12:28:32;;;;;;;3.92;3.20;;;;;;;18.16;36.22;101626.73;1739146;81;26056;-76
2022/04/29 12:37:01;;;;;;;2.75;2.10;;;;;;;18.18;35.16;101620.06;1727618;81;26164;-78
2022/04/29 12:39:43;;;;;;;3.95;2.20;;;;;;;18.22;34.67;101609.64;1710277;82;26272;-76
2022/04/29 12:42:13;;;;;;;4.65;2.40;;;;;;;18.20;33.39;101609.83;1655296;84;25779;-77
2022/04/29 12:45:10;;;;;;;2.10;1.70;;;;;;;18.22;33.39;101605.03;1674869;84;32627;-76
2022/04/29 12:48:02;;;;;;;2.10;1.50;;;;;;;18.27;33.23;101605.75;1688979;83;28061;-77
2022/04/29 12:50:39;;;;;;;3.37;1.60;;;;;;;18.36;33.50;101600.41;1693258;83;25954;-76
2022/04/29 12:53:16;;;;;;;1.98;1.42;;;;;;;18.43;32.81;101591.19;1704381;83;26112;-78
2022/04/29 12:55:52;;;;;;;2.92;1.62;;;;;;;18.51;31.65;101592.87;1696302;84;26283;-76
2022/04/29 12:58:28;;;;;;;2.33;1.25;;;;;;;18.51;31.15;101588.81;1695065;83;25292;-77
2022/04/29 13:01:06;;;;;;;2.55;1.22;;;;;;;18.45;29.13;101588.31;1711548;83;27436;-77
2022/04/29 13:03:52;;;;;;;2.72;1.40;;;;;;;18.42;30.28;101585.98;1696314;82;25801;-78
2022/04/29 13:06:29;;;;;;;4.42;1.52;;;;;;;18.46;31.10;101589.97;1633606;86;25952;-77
2022/04/29 13:08:58;;;;;;;5.60;2.25;;;;;;;18.55;31.31;101582.42;1670825;80;25863;-78
2022/04/29 13:11:25;;;;;;;2.33;1.82;;;;;;;18.61;31.03;101582.91;1633400;86;25919;-77
2022/04/29 13:13:54;;;;;;;3.67;2.08;;;;;;;18.70;31.19;101577.55;1658429;84;27478;-78
2022/04/29 13:16:23;;;;;;;3.83;2.33;;;;;;;18.80;31.13;101576.03;1666737;84;26536;-76
2022/04/29 13:18:51;;;;;;;7.10;2.10;;;;;;;18.82;29.69;101581.27;1666887;84;25985;-76
2022/04/29 13:21:17;;;;;;;3.10;2.12;;;;;;;18.84;30.56;101579.17;1640755;86;25989;-77
2022/04/29 13:23:46;;;;;;;5.53;2.67;;;;;;;18.83;30.96;101573.42;1639102;86;25944;-76
2022/04/29 13:26:14;;;;;;;4.80;2.47;;;;;;;18.91;30.74;101579.42;1629908;86;28296;-77
2022/04/29 13:28:43;;;;;;;3.17;2.65;;;;;;;18.93;30.48;101576.48;1647815;86;25951;-77
2022/04/29 13:31:09;;;;;;;3.87;2.42;;;;;;;19.01;32.20;101562.13;1635597;86;26411;-77
2022/04/29 13:33:35;;;;;;;5.42;3.30;;;;;;;19.17;32.19;101567.56;1648982;86;25847;-77
2022/04/29 13:36:02;;;;;;;10.25;3.95;;;;;;;19.25;31.95;101568.66;1647024;86;25912;-76
2022/04/29 13:38:29;;;;;;;4.60;3.33;;;;;;;19.16;30.82;101567.28;1641565;86;27994;-77
2022/04/29 13:40:56;;;;;;;5.60;3.50;;;;;;;18.90;31.22;101567.44;1642129;86;25787;-78
2022/04/29 13:43:23;;;;;;;4.65;3.10;;;;;;;18.67;31.63;101569.31;1631790;86;25390;-77
2022/04/29 13:45:50;;;;;;;5.92;3.65;;;;;;;18.48;32.39;101561.29;1645616;86;25812;-77
2022/04/29 13:48:16;;;;;;;8.13;3.47;;;;;;;18.39;33.48;101563.38;1641600;85;25973;-77
2022/04/29 13:50:43;;;;;;;6.35;3.50;;;;;;;18.41;33.20;101562.09;1685553;84;27461;-77
2022/04/29 13:53:13;;;;;;;5.80;3.50;;;;;;;18.44;33.46;101560.86;1664788;84;25805;-77
2022/04/29 13:55:47;;;;;;;5.20;3.60;;;;;;;18.44;34.33;101564.94;1664328;84;25484;-77
2022/04/29 13:58:15;;;;;;;5.20;3.95;;;;;;;18.51;33.38;101558.13;1676659;84;25939;-77
2022/04/29 14:00:42;;;;;;;5.17;3.77;;;;;;;18.47;32.40;101550.95;1680158;84;25950;-76
2022/04/29 14:03:11;;;;;;;5.15;3.70;;;;;;;18.36;33.55;101553.78;1693777;84;27627;-77
2022/04/29 14:05:38;;;;;;;7.42;3.42;;;;;;;18.22;32.28;101548.63;1686006;84;26251;-77
2022/04/29 14:08:04;;;;;;;4.78;2.98;;;;;;;18.02;32.60;101551.90;1646642;86;25574;-78
2022/04/29 14:10:31;;;;;;;5.00;3.33;;;;;;;17.82;32.34;101549.22;1671966;84;25824;-77
2022/04/29 14:12:58;;;;;;;7.20;3.95;;;;;;;17.61;32.67;101550.81;1677919;84;26044;-77
2022/04/29 14:15:27;;;;;;;7.67;4.40;;;;;;;17.41;33.56;101549.42;1689609;84;28295;-76
2022/04/29 14:17:54;;;;;;;13.60;9.85;;;;;;;17.37;33.54;101545.98;1682711;84;26539;-77
2022/04/29 14:20:20;;;;;;;6.65;5.12;;;;;;;17.40;34.16;101546.42;1670240;84;25395;-76
2022/04/29 14:22:49;;;;;;;5.45;3.70;;;;;;;17.41;34.10;101549.94;1687522;84;26338;-77
2022/04/29 14:25:16;;;;;;;6.60;4.08;;;;;;;17.39;34.41;101550.16;1675711;84;26611;-77
2022/04/29 14:27:44;;;;;;;4.40;3.37;;;;;;;17.45;34.72;101546.61;1683057;84;28254;-77
2022/04/29 14:30:13;;;;;;;4.45;4.05;;;;;;;17.50;34.29;101544.67;1683380;84;25864;-77
2022/04/29 14:32:40;;;;;;;8.35;4.97;;;;;;;17.56;34.77;101543.31;1672124;84;26447;-77
2022/04/29 14:35:09;;;;;;;8.03;4.53;;;;;;;17.79;34.39;101543.41;1676870;84;26221;-77
2022/04/29 14:37:36;;;;;;;6.00;4.70;;;;;;;18.03;33.38;101539.48;1677327;84;25763;-77
2022/04/29 14:40:05;;;;;;;7.08;5.40;;;;;;;18.17;32.90;101534.34;1687634;84;27406;-76
2022/04/29 14:42:32;;;;;;;7.53;6.62;;;;;;;18.27;33.51;101536.59;1677934;84;25762;-76
2022/04/29 14:45:02;;;;;;;6.35;5.47;;;;;;;18.44;32.90;101535.93;1679857;84;26441;-77
2022/04/29 14:47:27;;;;;;;13.60;8.60;;;;;;;18.49;32.52;101532.58;1693890;84;26221;-77
2022/04/29 14:49:53;;;;;;;13.48;9.18;;;;;;;18.55;32.77;101528.99;1698333;83;26011;-76
2022/04/29 14:52:20;;;;;;;12.35;8.95;;;;;;;18.68;33.17;101530.80;1683092;84;27457;-78
2022/04/29 14:54:46;;;;;;;10.65;5.67;;;;;;;18.82;33.28;101527.79;1674462;84;25825;-78